sensor_id;sensor_type;location;lat;lon;timestamp;temperature;humidity
28087;DHT22;15392;48.912;8.380;2023-05-28T00:02:05;22.40;34.80
28087;DHT22;15392;48.912;8.380;2023-05-28T00:04:34;22.40;34.80
28087;DHT22;15392;48.912;8.380;2023-05-28T00:07:00;22.40;34.80
28087;DHT22;15392;48.912;8.380;2023-05-28T00:09:26;22.40;34.80
28087;DHT22;15392;48.912;8.380;2023-05-28T00:11:52;22.40;34.80
28087;DHT22;15392;48.912;8.380;2023-05-28T00:14:18;22.40;34.70
28087;DHT22;15392;48.912;8.380;2023-05-28T00:16:44;22.30;34.50
28087;DHT22;15392;48.912;8.380;2023-05-28T00:19:11;22.30;34.60
28087;DHT22;15392;48.912;8.380;2023-05-28T00:21:37;22.30;34.50
28087;DHT22;15392;48.912;8.380;2023-05-28T00:24:03;22.30;34.70
28087;DHT22;15392;48.912;8.380;2023-05-28T00:26:30;22.30;34.70
28087;DHT22;15392;48.912;8.380;2023-05-28T00:28:56;22.30;34.60
28087;DHT22;15392;48.912;8.380;2023-05-28T00:31:21;22.30;34.60
28087;DHT22;15392;48.912;8.380;2023-05-28T00:33:47;22.30;34.50
28087;DHT22;15392;48.912;8.380;2023-05-28T00:36:14;22.30;34.50
28087;DHT22;15392;48.912;8.380;2023-05-28T00:38:40;22.30;34.60
28087;DHT22;15392;48.912;8.380;2023-05-28T00:41:06;22.30;34.70
28087;DHT22;15392;48.912;8.380;2023-05-28T00:43:32;22.30;34.70
28087;DHT22;15392;48.912;8.380;2023-05-28T00:45:59;22.30;34.70
28087;DHT22;15392;48.912;8.380;2023-05-28T00:48:30;22.30;34.50
28087;DHT22;15392;48.912;8.380;2023-05-28T00:50:58;22.30;35.20
28087;DHT22;15392;48.912;8.380;2023-05-28T00:53:24;22.30;34.70
28087;DHT22;15392;48.912;8.380;2023-05-28T00:55:50;22.20;34.70
28087;DHT22;15392;48.912;8.380;2023-05-28T00:58:17;22.30;34.80
28087;DHT22;15392;48.912;8.380;2023-05-28T01:00:45;22.30;34.70
28087;DHT22;15392;48.912;8.380;2023-05-28T01:03:14;22.30;35.00
28087;DHT22;15392;48.912;8.380;2023-05-28T01:05:40;22.30;34.90
28087;DHT22;15392;48.912;8.380;2023-05-28T01:08:06;22.30;35.40
28087;DHT22;15392;48.912;8.380;2023-05-28T01:10:33;22.30;35.10
28087;DHT22;15392;48.912;8.380;2023-05-28T01:13:02;22.30;35.50
28087;DHT22;15392;48.912;8.380;2023-05-28T01:15:30;22.30;35.70
28087;DHT22;15392;48.912;8.380;2023-05-28T01:17:58;22.30;35.80
28087;DHT22;15392;48.912;8.380;2023-05-28T01:20:29;22.30;35.80
28087;DHT22;15392;48.912;8.380;2023-05-28T01:22:58;22.30;36.00
28087;DHT22;15392;48.912;8.380;2023-05-28T01:25:25;22.30;35.60
28087;DHT22;15392;48.912;8.380;2023-05-28T01:27:52;22.20;35.80
28087;DHT22;15392;48.912;8.380;2023-05-28T01:30:18;22.20;36.00
28087;DHT22;15392;48.912;8.380;2023-05-28T01:32:44;22.10;36.00
28087;DHT22;15392;48.912;8.380;2023-05-28T01:35:10;22.10;36.00
28087;DHT22;15392;48.912;8.380;2023-05-28T01:37:39;22.10;36.10
28087;DHT22;15392;48.912;8.380;2023-05-28T01:40:08;22.00;36.10
28087;DHT22;15392;48.912;8.380;2023-05-28T01:42:35;22.00;36.20
28087;DHT22;15392;48.912;8.380;2023-05-28T01:45:02;21.90;36.20
28087;DHT22;15392;48.912;8.380;2023-05-28T01:47:31;21.80;36.20
28087;DHT22;15392;48.912;8.380;2023-05-28T01:49:58;21.70;36.20
28087;DHT22;15392;48.912;8.380;2023-05-28T01:52:23;21.70;36.30
28087;DHT22;15392;48.912;8.380;2023-05-28T01:54:50;21.60;36.40
28087;DHT22;15392;48.912;8.380;2023-05-28T01:57:15;21.60;36.50
28087;DHT22;15392;48.912;8.380;2023-05-28T01:59:41;21.50;36.60
28087;DHT22;15392;48.912;8.380;2023-05-28T02:02:07;21.40;36.60
28087;DHT22;15392;48.912;8.380;2023-05-28T02:04:33;21.40;36.80
28087;DHT22;15392;48.912;8.380;2023-05-28T02:06:59;21.30;36.80
28087;DHT22;15392;48.912;8.380;2023-05-28T02:09:25;21.30;36.90
28087;DHT22;15392;48.912;8.380;2023-05-28T02:11:51;21.30;37.10
28087;DHT22;15392;48.912;8.380;2023-05-28T02:14:16;21.20;37.00
28087;DHT22;15392;48.912;8.380;2023-05-28T02:16:46;21.10;37.00
28087;DHT22;15392;48.912;8.380;2023-05-28T02:19:15;21.10;37.10
28087;DHT22;15392;48.912;8.380;2023-05-28T02:21:41;21.00;37.10
28087;DHT22;15392;48.912;8.380;2023-05-28T02:24:07;21.00;37.10
28087;DHT22;15392;48.912;8.380;2023-05-28T02:26:33;20.90;37.10
28087;DHT22;15392;48.912;8.380;2023-05-28T02:28:58;20.80;37.20
28087;DHT22;15392;48.912;8.380;2023-05-28T02:31:24;20.80;37.30
28087;DHT22;15392;48.912;8.380;2023-05-28T02:33:50;20.70;37.30
28087;DHT22;15392;48.912;8.380;2023-05-28T02:36:16;20.70;37.40
28087;DHT22;15392;48.912;8.380;2023-05-28T02:38:42;20.60;37.40
28087;DHT22;15392;48.912;8.380;2023-05-28T02:41:09;20.50;37.50
28087;DHT22;15392;48.912;8.380;2023-05-28T02:43:35;20.50;37.50
28087;DHT22;15392;48.912;8.380;2023-05-28T02:46:01;20.40;37.50
28087;DHT22;15392;48.912;8.380;2023-05-28T02:48:27;20.40;37.60
28087;DHT22;15392;48.912;8.380;2023-05-28T02:50:53;20.40;37.60
28087;DHT22;15392;48.912;8.380;2023-05-28T02:53:22;20.30;37.70
28087;DHT22;15392;48.912;8.380;2023-05-28T02:55:49;20.30;37.80
28087;DHT22;15392;48.912;8.380;2023-05-28T02:58:15;20.20;37.80
28087;DHT22;15392;48.912;8.380;2023-05-28T03:00:41;20.20;37.80
28087;DHT22;15392;48.912;8.380;2023-05-28T03:03:07;20.10;37.80
28087;DHT22;15392;48.912;8.380;2023-05-28T03:05:34;20.10;37.80
28087;DHT22;15392;48.912;8.380;2023-05-28T03:08:00;20.00;37.80
28087;DHT22;15392;48.912;8.380;2023-05-28T03:10:26;20.00;37.80
28087;DHT22;15392;48.912;8.380;2023-05-28T03:12:52;20.00;37.90
28087;DHT22;15392;48.912;8.380;2023-05-28T03:15:18;20.00;37.80
28087;DHT22;15392;48.912;8.380;2023-05-28T03:17:43;19.90;37.80
28087;DHT22;15392;48.912;8.380;2023-05-28T03:20:10;19.90;37.70
28087;DHT22;15392;48.912;8.380;2023-05-28T03:22:37;19.90;37.70
28087;DHT22;15392;48.912;8.380;2023-05-28T03:25:04;19.80;37.70
28087;DHT22;15392;48.912;8.380;2023-05-28T03:27:31;19.80;37.60
28087;DHT22;15392;48.912;8.380;2023-05-28T03:29:57;19.80;37.50
28087;DHT22;15392;48.912;8.380;2023-05-28T03:32:23;19.80;37.80
28087;DHT22;15392;48.912;8.380;2023-05-28T03:34:49;19.70;37.90
28087;DHT22;15392;48.912;8.380;2023-05-28T03:37:15;19.70;38.00
28087;DHT22;15392;48.912;8.380;2023-05-28T03:39:41;19.70;38.00
28087;DHT22;15392;48.912;8.380;2023-05-28T03:42:07;19.70;38.00
28087;DHT22;15392;48.912;8.380;2023-05-28T03:44:33;19.60;38.10
28087;DHT22;15392;48.912;8.380;2023-05-28T03:47:00;19.60;38.20
28087;DHT22;15392;48.912;8.380;2023-05-28T03:49:26;19.60;38.30
28087;DHT22;15392;48.912;8.380;2023-05-28T03:51:52;19.50;38.20
28087;DHT22;15392;48.912;8.380;2023-05-28T03:54:17;19.50;38.10
28087;DHT22;15392;48.912;8.380;2023-05-28T03:56:43;19.40;38.20
28087;DHT22;15392;48.912;8.380;2023-05-28T03:59:09;19.40;38.30
28087;DHT22;15392;48.912;8.380;2023-05-28T04:01:35;19.40;38.40
28087;DHT22;15392;48.912;8.380;2023-05-28T04:04:02;19.40;38.30
28087;DHT22;15392;48.912;8.380;2023-05-28T04:06:28;19.30;38.40
28087;DHT22;15392;48.912;8.380;2023-05-28T04:08:56;19.30;38.50
28087;DHT22;15392;48.912;8.380;2023-05-28T04:11:21;19.30;38.40
28087;DHT22;15392;48.912;8.380;2023-05-28T04:13:51;19.30;38.40
28087;DHT22;15392;48.912;8.380;2023-05-28T04:16:17;19.30;38.40
28087;DHT22;15392;48.912;8.380;2023-05-28T04:18:44;19.20;38.50
28087;DHT22;15392;48.912;8.380;2023-05-28T04:21:10;19.20;38.50
28087;DHT22;15392;48.912;8.380;2023-05-28T04:23:38;19.20;38.50
28087;DHT22;15392;48.912;8.380;2023-05-28T04:26:03;19.10;38.40
28087;DHT22;15392;48.912;8.380;2023-05-28T04:28:32;19.10;38.50
28087;DHT22;15392;48.912;8.380;2023-05-28T04:30:59;19.10;38.60
28087;DHT22;15392;48.912;8.380;2023-05-28T04:33:27;19.10;38.60
28087;DHT22;15392;48.912;8.380;2023-05-28T04:36:00;19.00;38.60
28087;DHT22;15392;48.912;8.380;2023-05-28T04:38:27;19.00;38.80
28087;DHT22;15392;48.912;8.380;2023-05-28T04:40:58;19.00;38.80
28087;DHT22;15392;48.912;8.380;2023-05-28T04:43:26;18.90;38.70
28087;DHT22;15392;48.912;8.380;2023-05-28T04:45:54;18.90;38.80
28087;DHT22;15392;48.912;8.380;2023-05-28T04:48:20;18.90;39.00
28087;DHT22;15392;48.912;8.380;2023-05-28T04:50:46;18.90;39.00
28087;DHT22;15392;48.912;8.380;2023-05-28T04:53:13;18.80;39.10
28087;DHT22;15392;48.912;8.380;2023-05-28T04:55:38;18.80;39.10
28087;DHT22;15392;48.912;8.380;2023-05-28T04:58:05;18.80;39.10
28087;DHT22;15392;48.912;8.380;2023-05-28T05:00:31;18.80;39.10
28087;DHT22;15392;48.912;8.380;2023-05-28T05:03:00;18.80;39.20
28087;DHT22;15392;48.912;8.380;2023-05-28T05:05:27;18.80;39.20
28087;DHT22;15392;48.912;8.380;2023-05-28T05:07:53;18.80;39.30
28087;DHT22;15392;48.912;8.380;2023-05-28T05:10:19;18.80;39.40
28087;DHT22;15392;48.912;8.380;2023-05-28T05:12:45;18.80;39.40
28087;DHT22;15392;48.912;8.380;2023-05-28T05:15:11;18.80;39.50
28087;DHT22;15392;48.912;8.380;2023-05-28T05:17:37;18.80;39.40
28087;DHT22;15392;48.912;8.380;2023-05-28T05:20:03;18.80;39.50
28087;DHT22;15392;48.912;8.380;2023-05-28T05:22:34;18.80;39.50
28087;DHT22;15392;48.912;8.380;2023-05-28T05:24:59;18.90;39.50
28087;DHT22;15392;48.912;8.380;2023-05-28T05:27:25;18.90;39.50
28087;DHT22;15392;48.912;8.380;2023-05-28T05:29:51;18.90;39.40
28087;DHT22;15392;48.912;8.380;2023-05-28T05:32:17;18.90;39.40
28087;DHT22;15392;48.912;8.380;2023-05-28T05:34:43;18.90;39.60
28087;DHT22;15392;48.912;8.380;2023-05-28T05:37:09;18.90;39.60
28087;DHT22;15392;48.912;8.380;2023-05-28T05:39:35;18.90;39.50
28087;DHT22;15392;48.912;8.380;2023-05-28T05:42:00;18.90;39.50
28087;DHT22;15392;48.912;8.380;2023-05-28T05:44:26;19.00;39.70
28087;DHT22;15392;48.912;8.380;2023-05-28T05:46:52;19.00;39.60
28087;DHT22;15392;48.912;8.380;2023-05-28T05:49:18;19.00;39.70
28087;DHT22;15392;48.912;8.380;2023-05-28T05:51:44;19.10;39.70
28087;DHT22;15392;48.912;8.380;2023-05-28T05:54:09;19.10;39.70
28087;DHT22;15392;48.912;8.380;2023-05-28T05:56:35;19.20;39.80
28087;DHT22;15392;48.912;8.380;2023-05-28T05:59:01;19.20;39.80
28087;DHT22;15392;48.912;8.380;2023-05-28T06:01:27;19.30;39.80
28087;DHT22;15392;48.912;8.380;2023-05-28T06:03:55;19.40;39.90
28087;DHT22;15392;48.912;8.380;2023-05-28T06:06:21;19.40;39.90
28087;DHT22;15392;48.912;8.380;2023-05-28T06:08:47;19.50;39.80
28087;DHT22;15392;48.912;8.380;2023-05-28T06:11:13;19.50;39.90
28087;DHT22;15392;48.912;8.380;2023-05-28T06:13:39;19.60;39.90
28087;DHT22;15392;48.912;8.380;2023-05-28T06:16:05;19.70;39.90
28087;DHT22;15392;48.912;8.380;2023-05-28T06:18:32;19.80;39.80
28087;DHT22;15392;48.912;8.380;2023-05-28T06:20:58;19.80;39.70
28087;DHT22;15392;48.912;8.380;2023-05-28T06:23:25;19.90;39.80
28087;DHT22;15392;48.912;8.380;2023-05-28T06:25:50;20.00;39.70
28087;DHT22;15392;48.912;8.380;2023-05-28T06:28:17;20.10;39.70
28087;DHT22;15392;48.912;8.380;2023-05-28T06:30:43;20.20;39.70
28087;DHT22;15392;48.912;8.380;2023-05-28T06:33:10;20.30;39.60
28087;DHT22;15392;48.912;8.380;2023-05-28T06:35:36;20.40;39.60
28087;DHT22;15392;48.912;8.380;2023-05-28T06:38:02;20.50;39.60
28087;DHT22;15392;48.912;8.380;2023-05-28T06:40:29;20.50;39.50
28087;DHT22;15392;48.912;8.380;2023-05-28T06:42:54;20.70;39.50
28087;DHT22;15392;48.912;8.380;2023-05-28T06:45:21;20.70;39.40
28087;DHT22;15392;48.912;8.380;2023-05-28T06:47:47;20.80;39.50
28087;DHT22;15392;48.912;8.380;2023-05-28T06:50:13;20.90;39.50
28087;DHT22;15392;48.912;8.380;2023-05-28T06:52:39;21.00;39.40
28087;DHT22;15392;48.912;8.380;2023-05-28T06:55:06;21.10;39.30
28087;DHT22;15392;48.912;8.380;2023-05-28T06:57:34;21.10;39.20
28087;DHT22;15392;48.912;8.380;2023-05-28T07:00:05;21.20;39.20
28087;DHT22;15392;48.912;8.380;2023-05-28T07:02:39;21.30;39.20
28087;DHT22;15392;48.912;8.380;2023-05-28T07:05:05;21.40;39.10
28087;DHT22;15392;48.912;8.380;2023-05-28T07:07:31;21.50;39.20
28087;DHT22;15392;48.912;8.380;2023-05-28T07:09:58;21.60;39.20
28087;DHT22;15392;48.912;8.380;2023-05-28T07:12:24;21.70;39.20
28087;DHT22;15392;48.912;8.380;2023-05-28T07:14:49;21.80;39.10
28087;DHT22;15392;48.912;8.380;2023-05-28T07:17:15;21.90;39.10
28087;DHT22;15392;48.912;8.380;2023-05-28T07:19:41;22.00;39.10
28087;DHT22;15392;48.912;8.380;2023-05-28T07:22:07;22.10;39.10
28087;DHT22;15392;48.912;8.380;2023-05-28T07:24:33;22.20;39.00
28087;DHT22;15392;48.912;8.380;2023-05-28T07:26:59;22.30;38.90
28087;DHT22;15392;48.912;8.380;2023-05-28T07:29:26;22.40;38.90
28087;DHT22;15392;48.912;8.380;2023-05-28T07:31:52;22.50;38.90
28087;DHT22;15392;48.912;8.380;2023-05-28T07:34:18;22.50;38.80
28087;DHT22;15392;48.912;8.380;2023-05-28T07:36:44;22.70;38.70
28087;DHT22;15392;48.912;8.380;2023-05-28T07:39:10;22.80;38.70
28087;DHT22;15392;48.912;8.380;2023-05-28T07:41:36;22.90;38.70
28087;DHT22;15392;48.912;8.380;2023-05-28T07:44:02;23.00;38.60
28087;DHT22;15392;48.912;8.380;2023-05-28T07:46:28;23.10;38.50
28087;DHT22;15392;48.912;8.380;2023-05-28T07:48:53;23.20;38.50
28087;DHT22;15392;48.912;8.380;2023-05-28T07:51:19;23.30;38.40
28087;DHT22;15392;48.912;8.380;2023-05-28T07:53:45;23.40;38.40
28087;DHT22;15392;48.912;8.380;2023-05-28T07:56:11;23.50;38.50
28087;DHT22;15392;48.912;8.380;2023-05-28T07:58:46;23.70;38.60
28087;DHT22;15392;48.912;8.380;2023-05-28T08:01:11;23.80;38.60
28087;DHT22;15392;48.912;8.380;2023-05-28T08:03:37;24.00;38.50
28087;DHT22;15392;48.912;8.380;2023-05-28T08:06:04;24.20;38.40
28087;DHT22;15392;48.912;8.380;2023-05-28T08:08:29;24.40;38.40
28087;DHT22;15392;48.912;8.380;2023-05-28T08:10:55;24.60;38.40
28087;DHT22;15392;48.912;8.380;2023-05-28T08:13:21;24.90;38.40
28087;DHT22;15392;48.912;8.380;2023-05-28T08:15:48;25.10;38.40
28087;DHT22;15392;48.912;8.380;2023-05-28T08:18:14;25.40;38.40
28087;DHT22;15392;48.912;8.380;2023-05-28T08:20:42;25.70;38.50
28087;DHT22;15392;48.912;8.380;2023-05-28T08:23:08;26.00;38.40
28087;DHT22;15392;48.912;8.380;2023-05-28T08:25:34;26.30;38.30
28087;DHT22;15392;48.912;8.380;2023-05-28T08:28:00;26.60;38.10
28087;DHT22;15392;48.912;8.380;2023-05-28T08:30:30;26.90;38.00
28087;DHT22;15392;48.912;8.380;2023-05-28T08:32:56;27.10;37.70
28087;DHT22;15392;48.912;8.380;2023-05-28T08:35:22;27.30;37.50
28087;DHT22;15392;48.912;8.380;2023-05-28T08:37:48;27.60;37.40
28087;DHT22;15392;48.912;8.380;2023-05-28T08:40:14;27.70;37.20
28087;DHT22;15392;48.912;8.380;2023-05-28T08:42:41;27.90;37.00
28087;DHT22;15392;48.912;8.380;2023-05-28T08:45:08;28.10;36.90
28087;DHT22;15392;48.912;8.380;2023-05-28T08:47:36;28.20;36.70
28087;DHT22;15392;48.912;8.380;2023-05-28T08:50:04;28.40;36.50
28087;DHT22;15392;48.912;8.380;2023-05-28T08:52:33;28.50;36.40
28087;DHT22;15392;48.912;8.380;2023-05-28T08:55:04;28.70;36.50
28087;DHT22;15392;48.912;8.380;2023-05-28T08:57:32;28.70;36.30
28087;DHT22;15392;48.912;8.380;2023-05-28T08:59:59;28.80;36.20
28087;DHT22;15392;48.912;8.380;2023-05-28T09:02:26;28.90;36.20
28087;DHT22;15392;48.912;8.380;2023-05-28T09:04:52;29.00;36.20
28087;DHT22;15392;48.912;8.380;2023-05-28T09:07:18;29.00;36.30
28087;DHT22;15392;48.912;8.380;2023-05-28T09:09:46;29.20;36.50
28087;DHT22;15392;48.912;8.380;2023-05-28T09:12:12;29.30;36.60
28087;DHT22;15392;48.912;8.380;2023-05-28T09:14:40;29.50;36.60
28087;DHT22;15392;48.912;8.380;2023-05-28T09:17:07;29.80;36.80
28087;DHT22;15392;48.912;8.380;2023-05-28T09:19:35;30.00;36.60
28087;DHT22;15392;48.912;8.380;2023-05-28T09:22:01;30.30;36.60
28087;DHT22;15392;48.912;8.380;2023-05-28T09:24:31;30.40;36.50
28087;DHT22;15392;48.912;8.380;2023-05-28T09:26:59;30.70;36.10
28087;DHT22;15392;48.912;8.380;2023-05-28T09:29:26;30.80;36.10
28087;DHT22;15392;48.912;8.380;2023-05-28T09:31:56;30.90;36.10
28087;DHT22;15392;48.912;8.380;2023-05-28T09:34:31;31.20;35.70
28087;DHT22;15392;48.912;8.380;2023-05-28T09:37:01;31.30;35.50
28087;DHT22;15392;48.912;8.380;2023-05-28T09:39:28;31.40;35.40
28087;DHT22;15392;48.912;8.380;2023-05-28T09:42:02;31.50;35.60
28087;DHT22;15392;48.912;8.380;2023-05-28T09:44:32;31.50;34.70
28087;DHT22;15392;48.912;8.380;2023-05-28T09:46:59;31.60;35.40
28087;DHT22;15392;48.912;8.380;2023-05-28T09:49:28;31.70;35.30
28087;DHT22;15392;48.912;8.380;2023-05-28T09:51:57;31.70;34.80
28087;DHT22;15392;48.912;8.380;2023-05-28T09:54:29;31.70;34.90
28087;DHT22;15392;48.912;8.380;2023-05-28T09:57:02;31.70;34.40
28087;DHT22;15392;48.912;8.380;2023-05-28T09:59:34;31.70;34.30
28087;DHT22;15392;48.912;8.380;2023-05-28T10:02:25;31.70;34.20
28087;DHT22;15392;48.912;8.380;2023-05-28T10:04:53;31.70;33.80
28087;DHT22;15392;48.912;8.380;2023-05-28T10:07:25;31.70;34.40
28087;DHT22;15392;48.912;8.380;2023-05-28T10:09:55;31.60;34.00
28087;DHT22;15392;48.912;8.380;2023-05-28T10:12:27;31.50;34.10
28087;DHT22;15392;48.912;8.380;2023-05-28T10:14:54;31.50;34.10
28087;DHT22;15392;48.912;8.380;2023-05-28T10:17:21;31.50;34.40
28087;DHT22;15392;48.912;8.380;2023-05-28T10:19:47;31.40;34.40
28087;DHT22;15392;48.912;8.380;2023-05-28T10:22:15;31.40;34.50
28087;DHT22;15392;48.912;8.380;2023-05-28T10:24:42;31.30;34.40
28087;DHT22;15392;48.912;8.380;2023-05-28T10:27:13;31.20;34.40
28087;DHT22;15392;48.912;8.380;2023-05-28T10:29:41;31.20;33.90
28087;DHT22;15392;48.912;8.380;2023-05-28T10:32:09;31.10;34.50
28087;DHT22;15392;48.912;8.380;2023-05-28T10:34:38;31.10;34.50
28087;DHT22;15392;48.912;8.380;2023-05-28T10:37:06;31.00;34.10
28087;DHT22;15392;48.912;8.380;2023-05-28T10:39:44;31.00;34.30
28087;DHT22;15392;48.912;8.380;2023-05-28T10:42:17;30.90;33.80
28087;DHT22;15392;48.912;8.380;2023-05-28T10:47:37;30.80;34.10
28087;DHT22;15392;48.912;8.380;2023-05-28T10:52:38;30.70;34.20
28087;DHT22;15392;48.912;8.380;2023-05-28T10:55:08;30.60;34.70
28087;DHT22;15392;48.912;8.380;2023-05-28T10:57:47;30.60;34.30
28087;DHT22;15392;48.912;8.380;2023-05-28T11:00:23;30.60;33.90
28087;DHT22;15392;48.912;8.380;2023-05-28T11:02:52;30.60;34.00
28087;DHT22;15392;48.912;8.380;2023-05-28T11:05:23;30.50;33.40
28087;DHT22;15392;48.912;8.380;2023-05-28T11:07:54;30.50;34.40
28087;DHT22;15392;48.912;8.380;2023-05-28T11:10:22;30.50;34.40
28087;DHT22;15392;48.912;8.380;2023-05-28T11:12:50;30.40;34.50
28087;DHT22;15392;48.912;8.380;2023-05-28T11:15:16;30.40;34.50
28087;DHT22;15392;48.912;8.380;2023-05-28T11:17:43;30.40;34.50
28087;DHT22;15392;48.912;8.380;2023-05-28T11:20:19;30.40;34.50
28087;DHT22;15392;48.912;8.380;2023-05-28T11:22:47;30.50;33.90
28087;DHT22;15392;48.912;8.380;2023-05-28T11:25:14;30.50;34.80
28087;DHT22;15392;48.912;8.380;2023-05-28T11:27:40;30.50;34.50
28087;DHT22;15392;48.912;8.380;2023-05-28T11:30:08;30.50;34.60
28087;DHT22;15392;48.912;8.380;2023-05-28T11:32:45;30.50;34.50
28087;DHT22;15392;48.912;8.380;2023-05-28T11:35:13;30.60;34.40
28087;DHT22;15392;48.912;8.380;2023-05-28T11:37:41;30.60;34.30
28087;DHT22;15392;48.912;8.380;2023-05-28T11:40:09;30.60;34.20
28087;DHT22;15392;48.912;8.380;2023-05-28T11:42:38;30.60;34.10
28087;DHT22;15392;48.912;8.380;2023-05-28T11:45:07;30.70;34.20
28087;DHT22;15392;48.912;8.380;2023-05-28T11:47:35;30.70;34.30
28087;DHT22;15392;48.912;8.380;2023-05-28T11:50:15;30.70;34.00
28087;DHT22;15392;48.912;8.380;2023-05-28T11:52:42;30.80;33.30
28087;DHT22;15392;48.912;8.380;2023-05-28T11:55:09;30.90;34.30
28087;DHT22;15392;48.912;8.380;2023-05-28T11:57:36;30.90;34.20
28087;DHT22;15392;48.912;8.380;2023-05-28T12:00:13;31.00;34.20
28087;DHT22;15392;48.912;8.380;2023-05-28T12:02:45;31.00;33.60
28087;DHT22;15392;48.912;8.380;2023-05-28T12:05:13;31.10;33.80
28087;DHT22;15392;48.912;8.380;2023-05-28T12:07:44;31.20;33.80
28087;DHT22;15392;48.912;8.380;2023-05-28T12:10:15;31.20;33.30
28087;DHT22;15392;48.912;8.380;2023-05-28T12:12:54;31.30;33.80
28087;DHT22;15392;48.912;8.380;2023-05-28T12:15:23;31.40;33.60
28087;DHT22;15392;48.912;8.380;2023-05-28T12:17:57;31.50;33.80
28087;DHT22;15392;48.912;8.380;2023-05-28T12:20:53;31.50;33.10
28087;DHT22;15392;48.912;8.380;2023-05-28T12:23:23;31.70;32.50
28087;DHT22;15392;48.912;8.380;2023-05-28T12:25:49;31.70;33.40
28087;DHT22;15392;48.912;8.380;2023-05-28T12:28:18;31.80;33.30
28087;DHT22;15392;48.912;8.380;2023-05-28T12:30:46;31.80;33.50
28087;DHT22;15392;48.912;8.380;2023-05-28T12:33:18;31.90;33.50
28087;DHT22;15392;48.912;8.380;2023-05-28T12:35:45;32.00;34.30
28087;DHT22;15392;48.912;8.380;2023-05-28T12:38:12;32.00;33.60
28087;DHT22;15392;48.912;8.380;2023-05-28T12:40:39;32.10;33.30
28087;DHT22;15392;48.912;8.380;2023-05-28T12:43:06;32.10;33.60
28087;DHT22;15392;48.912;8.380;2023-05-28T12:45:32;32.20;33.40
28087;DHT22;15392;48.912;8.380;2023-05-28T12:47:59;32.30;33.70
28087;DHT22;15392;48.912;8.380;2023-05-28T12:50:25;32.40;33.50
28087;DHT22;15392;48.912;8.380;2023-05-28T12:52:52;32.40;33.60
28087;DHT22;15392;48.912;8.380;2023-05-28T12:55:21;32.60;33.50
28087;DHT22;15392;48.912;8.380;2023-05-28T12:57:50;32.60;33.10
28087;DHT22;15392;48.912;8.380;2023-05-28T13:00:16;32.70;33.40
28087;DHT22;15392;48.912;8.380;2023-05-28T13:02:42;32.80;33.40
28087;DHT22;15392;48.912;8.380;2023-05-28T13:05:08;32.80;33.40
28087;DHT22;15392;48.912;8.380;2023-05-28T13:07:34;32.90;33.30
28087;DHT22;15392;48.912;8.380;2023-05-28T13:10:00;33.00;33.20
28087;DHT22;15392;48.912;8.380;2023-05-28T13:12:26;33.00;32.70
28087;DHT22;15392;48.912;8.380;2023-05-28T13:14:52;33.10;32.70
28087;DHT22;15392;48.912;8.380;2023-05-28T13:17:17;33.10;32.30
28087;DHT22;15392;48.912;8.380;2023-05-28T13:19:45;33.20;32.80
28087;DHT22;15392;48.912;8.380;2023-05-28T13:22:13;33.20;32.50
28087;DHT22;15392;48.912;8.380;2023-05-28T13:24:40;33.20;32.30
28087;DHT22;15392;48.912;8.380;2023-05-28T13:27:05;33.20;32.20
28087;DHT22;15392;48.912;8.380;2023-05-28T13:29:32;33.10;32.40
28087;DHT22;15392;48.912;8.380;2023-05-28T13:31:57;33.10;32.60
28087;DHT22;15392;48.912;8.380;2023-05-28T13:34:23;33.10;32.70
28087;DHT22;15392;48.912;8.380;2023-05-28T13:36:49;33.10;32.60
28087;DHT22;15392;48.912;8.380;2023-05-28T13:39:15;33.00;32.40
28087;DHT22;15392;48.912;8.380;2023-05-28T13:41:41;33.00;31.60
28087;DHT22;15392;48.912;8.380;2023-05-28T13:44:07;33.00;32.00
28087;DHT22;15392;48.912;8.380;2023-05-28T13:46:34;33.00;32.40
28087;DHT22;15392;48.912;8.380;2023-05-28T13:49:00;32.90;32.50
28087;DHT22;15392;48.912;8.380;2023-05-28T13:51:26;32.80;32.50
28087;DHT22;15392;48.912;8.380;2023-05-28T13:53:53;32.70;32.50
28087;DHT22;15392;48.912;8.380;2023-05-28T13:56:19;32.70;32.60
28087;DHT22;15392;48.912;8.380;2023-05-28T13:58:45;32.70;32.30
28087;DHT22;15392;48.912;8.380;2023-05-28T14:01:11;32.60;32.50
28087;DHT22;15392;48.912;8.380;2023-05-28T14:03:36;32.50;32.40
28087;DHT22;15392;48.912;8.380;2023-05-28T14:06:03;32.50;32.00
28087;DHT22;15392;48.912;8.380;2023-05-28T14:08:29;32.40;32.60
28087;DHT22;15392;48.912;8.380;2023-05-28T14:10:55;32.40;31.60
28087;DHT22;15392;48.912;8.380;2023-05-28T14:13:22;32.30;32.50
28087;DHT22;15392;48.912;8.380;2023-05-28T14:15:48;32.20;32.50
28087;DHT22;15392;48.912;8.380;2023-05-28T14:18:13;32.20;32.50
28087;DHT22;15392;48.912;8.380;2023-05-28T14:20:40;32.20;32.60
28087;DHT22;15392;48.912;8.380;2023-05-28T14:23:06;32.10;32.60
28087;DHT22;15392;48.912;8.380;2023-05-28T14:25:32;32.00;32.50
28087;DHT22;15392;48.912;8.380;2023-05-28T14:27:58;32.00;32.40
28087;DHT22;15392;48.912;8.380;2023-05-28T14:30:24;31.90;32.50
28087;DHT22;15392;48.912;8.380;2023-05-28T14:32:50;31.90;32.10
28087;DHT22;15392;48.912;8.380;2023-05-28T14:35:16;31.90;32.50
28087;DHT22;15392;48.912;8.380;2023-05-28T14:37:41;31.80;32.40
28087;DHT22;15392;48.912;8.380;2023-05-28T14:40:08;31.80;32.30
28087;DHT22;15392;48.912;8.380;2023-05-28T14:42:34;31.80;32.00
28087;DHT22;15392;48.912;8.380;2023-05-28T14:45:00;31.70;32.10
28087;DHT22;15392;48.912;8.380;2023-05-28T14:47:26;31.70;32.10
28087;DHT22;15392;48.912;8.380;2023-05-28T14:49:52;31.60;32.60
28087;DHT22;15392;48.912;8.380;2023-05-28T14:52:30;31.60;32.20
28087;DHT22;15392;48.912;8.380;2023-05-28T14:54:57;31.50;30.90
28087;DHT22;15392;48.912;8.380;2023-05-28T14:57:25;31.50;32.10
28087;DHT22;15392;48.912;8.380;2023-05-28T14:59:58;31.50;32.10
28087;DHT22;15392;48.912;8.380;2023-05-28T15:02:31;31.40;31.90
28087;DHT22;15392;48.912;8.380;2023-05-28T15:04:56;31.40;32.10
28087;DHT22;15392;48.912;8.380;2023-05-28T15:07:22;31.40;32.00
28087;DHT22;15392;48.912;8.380;2023-05-28T15:09:49;31.30;32.00
28087;DHT22;15392;48.912;8.380;2023-05-28T15:12:15;31.30;32.00
28087;DHT22;15392;48.912;8.380;2023-05-28T15:14:41;31.30;31.70
28087;DHT22;15392;48.912;8.380;2023-05-28T15:17:07;31.20;32.10
28087;DHT22;15392;48.912;8.380;2023-05-28T15:19:33;31.20;31.60
28087;DHT22;15392;48.912;8.380;2023-05-28T15:21:58;31.10;32.00
28087;DHT22;15392;48.912;8.380;2023-05-28T15:24:24;31.10;31.90
28087;DHT22;15392;48.912;8.380;2023-05-28T15:26:50;31.10;31.80
28087;DHT22;15392;48.912;8.380;2023-05-28T15:29:17;31.10;31.80
28087;DHT22;15392;48.912;8.380;2023-05-28T15:31:47;31.00;31.80
28087;DHT22;15392;48.912;8.380;2023-05-28T15:34:14;31.00;31.30
28087;DHT22;15392;48.912;8.380;2023-05-28T15:36:40;30.90;31.30